Terminal Aerodrome Forecast
Issued by NWS Knoxville/Tri Cities, TN

Home | Current Version | Previous Version | Text Only | Print | Product List | Glossary On
Versions: 1 2 3 4 5 6 7 8 9 10 11 12 13 14 15 16 17 18 19 20 21 22
000
FTUS44 KMRX 280538
TAFTYS
TAF
KTYS 280538Z 2806/2906 00000KT P6SM SCT050 SCT250
     FM281500 23006KT P6SM BKN040
     FM282200 23010KT P6SM VCTS BKN040CB
     FM290200 24015KT 4SM -SHRA BR OVC015=

USA.gov is the U.S. government's official web portal to all federal, state and local government web resources and services.